sensor_id;sensor_type;location;lat;lon;timestamp;pressure;altitude;pressure_sealevel;temperature;humidity
28588;BME280;15787;49.662;10.162;2023-04-26T00:00:15;99174.88;;;3.72;90.90
28588;BME280;15787;49.662;10.162;2023-04-26T00:02:48;99170.16;;;3.73;90.72
28588;BME280;15787;49.662;10.162;2023-04-26T00:05:21;99173.28;;;3.71;90.59
28588;BME280;15787;49.662;10.162;2023-04-26T00:07:57;99167.78;;;3.75;91.08
28588;BME280;15787;49.662;10.162;2023-04-26T00:10:30;99173.16;;;3.57;90.75
28588;BME280;15787;49.662;10.162;2023-04-26T00:13:03;99174.47;;;3.27;90.66
28588;BME280;15787;49.662;10.162;2023-04-26T00:15:36;99169.22;;;3.14;91.85
28588;BME280;15787;49.662;10.162;2023-04-26T00:18:09;99177.56;;;3.22;92.99
28588;BME280;15787;49.662;10.162;2023-04-26T00:20:43;99172.28;;;3.06;93.32
28588;BME280;15787;49.662;10.162;2023-04-26T00:23:17;99172.00;;;3.18;93.40
28588;BME280;15787;49.662;10.162;2023-04-26T00:25:51;99182.03;;;3.37;94.02
28588;BME280;15787;49.662;10.162;2023-04-26T00:28:24;99176.97;;;3.42;93.61
28588;BME280;15787;49.662;10.162;2023-04-26T00:30:57;99174.88;;;3.29;93.54
28588;BME280;15787;49.662;10.162;2023-04-26T00:33:30;99180.44;;;3.32;93.98
28588;BME280;15787;49.662;10.162;2023-04-26T00:36:03;99178.81;;;3.28;93.65
28588;BME280;15787;49.662;10.162;2023-04-26T00:38:37;99183.22;;;3.36;93.06
28588;BME280;15787;49.662;10.162;2023-04-26T00:41:11;99182.34;;;3.28;92.88
28588;BME280;15787;49.662;10.162;2023-04-26T00:43:44;99181.06;;;3.15;92.83
28588;BME280;15787;49.662;10.162;2023-04-26T00:46:17;99175.00;;;3.02;93.34
28588;BME280;15787;49.662;10.162;2023-04-26T00:48:50;99177.09;;;3.16;93.00
28588;BME280;15787;49.662;10.162;2023-04-26T00:51:24;99180.28;;;3.18;92.44
28588;BME280;15787;49.662;10.162;2023-04-26T00:53:59;99178.47;;;3.33;92.31
28588;BME280;15787;49.662;10.162;2023-04-26T00:56:32;99181.47;;;3.20;91.64
28588;BME280;15787;49.662;10.162;2023-04-26T00:59:07;99190.09;;;3.15;92.20
28588;BME280;15787;49.662;10.162;2023-04-26T01:01:39;99193.59;;;3.09;92.72
28588;BME280;15787;49.662;10.162;2023-04-26T01:04:13;99184.91;;;3.10;92.75
28588;BME280;15787;49.662;10.162;2023-04-26T01:06:47;99186.53;;;3.11;92.34
28588;BME280;15787;49.662;10.162;2023-04-26T01:09:21;99190.03;;;3.08;92.91
28588;BME280;15787;49.662;10.162;2023-04-26T01:11:55;99191.34;;;2.85;93.73
28588;BME280;15787;49.662;10.162;2023-04-26T01:14:29;99195.75;;;2.93;94.34
28588;BME280;15787;49.662;10.162;2023-04-26T01:17:03;99192.78;;;3.05;94.12
28588;BME280;15787;49.662;10.162;2023-04-26T01:19:46;99197.63;;;2.82;93.78
28588;BME280;15787;49.662;10.162;2023-04-26T01:22:19;99190.00;;;2.42;94.18
28588;BME280;15787;49.662;10.162;2023-04-26T01:24:56;99192.19;;;2.29;96.79
28588;BME280;15787;49.662;10.162;2023-04-26T01:27:30;99200.06;;;2.27;96.99
28588;BME280;15787;49.662;10.162;2023-04-26T01:30:03;99207.97;;;2.03;97.29
28588;BME280;15787;49.662;10.162;2023-04-26T01:32:36;99187.25;;;2.12;98.54
28588;BME280;15787;49.662;10.162;2023-04-26T01:35:09;99192.03;;;2.19;98.15
28588;BME280;15787;49.662;10.162;2023-04-26T01:37:43;99196.53;;;2.57;97.24
28588;BME280;15787;49.662;10.162;2023-04-26T01:40:17;99198.72;;;2.44;95.85
28588;BME280;15787;49.662;10.162;2023-04-26T01:42:50;99196.06;;;2.54;95.61
28588;BME280;15787;49.662;10.162;2023-04-26T01:45:24;99194.09;;;2.51;94.99
28588;BME280;15787;49.662;10.162;2023-04-26T01:48:15;99194.13;;;2.55;94.20
28588;BME280;15787;49.662;10.162;2023-04-26T01:50:48;99189.25;;;2.45;93.84
28588;BME280;15787;49.662;10.162;2023-04-26T01:53:21;99190.03;;;1.89;95.12
28588;BME280;15787;49.662;10.162;2023-04-26T01:55:56;99193.31;;;2.25;95.27
28588;BME280;15787;49.662;10.162;2023-04-26T01:58:29;99190.25;;;2.30;94.85
28588;BME280;15787;49.662;10.162;2023-04-26T02:01:04;99204.88;;;2.08;94.93
28588;BME280;15787;49.662;10.162;2023-04-26T02:03:38;99196.94;;;2.03;95.16
28588;BME280;15787;49.662;10.162;2023-04-26T02:06:11;99191.97;;;1.63;95.96
28588;BME280;15787;49.662;10.162;2023-04-26T02:08:44;99192.84;;;1.67;97.03
28588;BME280;15787;49.662;10.162;2023-04-26T02:11:18;99190.69;;;1.79;96.98
28588;BME280;15787;49.662;10.162;2023-04-26T02:13:51;99189.91;;;2.05;96.65
28588;BME280;15787;49.662;10.162;2023-04-26T02:16:25;99188.06;;;1.64;97.01
28588;BME280;15787;49.662;10.162;2023-04-26T02:18:58;99189.47;;;1.77;97.35
28588;BME280;15787;49.662;10.162;2023-04-26T02:21:31;99184.59;;;1.93;97.88
28588;BME280;15787;49.662;10.162;2023-04-26T02:24:04;99185.19;;;2.06;97.13
28588;BME280;15787;49.662;10.162;2023-04-26T02:26:38;99190.72;;;2.09;96.02
28588;BME280;15787;49.662;10.162;2023-04-26T02:29:11;99193.28;;;1.95;96.48
28588;BME280;15787;49.662;10.162;2023-04-26T02:31:45;99195.06;;;1.84;96.14
28588;BME280;15787;49.662;10.162;2023-04-26T02:34:19;99186.13;;;2.17;95.48
28588;BME280;15787;49.662;10.162;2023-04-26T02:36:52;99189.91;;;2.05;94.49
28588;BME280;15787;49.662;10.162;2023-04-26T02:39:25;99195.63;;;1.93;94.54
28588;BME280;15787;49.662;10.162;2023-04-26T02:42:00;99194.03;;;1.92;94.07
28588;BME280;15787;49.662;10.162;2023-04-26T02:44:33;99194.91;;;1.73;94.95
28588;BME280;15787;49.662;10.162;2023-04-26T02:47:07;99191.66;;;1.90;94.91
28588;BME280;15787;49.662;10.162;2023-04-26T02:49:40;99201.06;;;1.89;94.07
28588;BME280;15787;49.662;10.162;2023-04-26T02:52:13;99199.91;;;1.68;94.78
28588;BME280;15787;49.662;10.162;2023-04-26T02:54:46;99205.56;;;1.75;95.21
28588;BME280;15787;49.662;10.162;2023-04-26T02:57:20;99199.28;;;1.52;95.22
28588;BME280;15787;49.662;10.162;2023-04-26T02:59:54;99196.19;;;1.79;95.47
28588;BME280;15787;49.662;10.162;2023-04-26T03:02:27;99197.16;;;1.22;96.11
28588;BME280;15787;49.662;10.162;2023-04-26T03:05:01;99199.06;;;1.18;97.08
28588;BME280;15787;49.662;10.162;2023-04-26T03:07:35;99201.09;;;1.67;96.92
28588;BME280;15787;49.662;10.162;2023-04-26T03:10:08;99201.22;;;1.51;96.42
28588;BME280;15787;49.662;10.162;2023-04-26T03:12:44;99201.78;;;1.86;95.91
28588;BME280;15787;49.662;10.162;2023-04-26T03:15:19;99204.06;;;1.81;95.50
28588;BME280;15787;49.662;10.162;2023-04-26T03:17:52;99201.13;;;1.25;96.37
28588;BME280;15787;49.662;10.162;2023-04-26T03:20:26;99196.53;;;1.10;97.40
28588;BME280;15787;49.662;10.162;2023-04-26T03:22:59;99198.09;;;1.53;97.31
28588;BME280;15787;49.662;10.162;2023-04-26T03:25:32;99209.97;;;1.57;96.60
28588;BME280;15787;49.662;10.162;2023-04-26T03:28:06;99210.75;;;1.35;96.92
28588;BME280;15787;49.662;10.162;2023-04-26T03:30:40;99205.06;;;1.47;97.07
28588;BME280;15787;49.662;10.162;2023-04-26T03:33:13;99209.66;;;1.62;96.52
28588;BME280;15787;49.662;10.162;2023-04-26T03:35:45;99203.97;;;1.51;96.35
28588;BME280;15787;49.662;10.162;2023-04-26T03:38:18;99208.47;;;1.63;95.92
28588;BME280;15787;49.662;10.162;2023-04-26T03:40:51;99202.94;;;1.59;95.91
28588;BME280;15787;49.662;10.162;2023-04-26T03:43:26;99205.66;;;1.14;95.73
28588;BME280;15787;49.662;10.162;2023-04-26T03:45:59;99205.31;;;1.61;96.29
28588;BME280;15787;49.662;10.162;2023-04-26T03:48:32;99213.88;;;1.56;95.82
28588;BME280;15787;49.662;10.162;2023-04-26T03:51:05;99207.34;;;1.41;95.45
28588;BME280;15787;49.662;10.162;2023-04-26T03:53:39;99214.25;;;1.12;95.58
28588;BME280;15787;49.662;10.162;2023-04-26T03:56:12;99209.97;;;1.34;95.58
28588;BME280;15787;49.662;10.162;2023-04-26T03:58:48;99216.28;;;1.35;95.91
28588;BME280;15787;49.662;10.162;2023-04-26T04:01:21;99210.69;;;1.54;95.74
28588;BME280;15787;49.662;10.162;2023-04-26T04:03:55;99222.19;;;1.59;94.79
28588;BME280;15787;49.662;10.162;2023-04-26T04:06:28;99211.53;;;1.58;94.50
28588;BME280;15787;49.662;10.162;2023-04-26T04:09:01;99222.25;;;1.63;94.37
28588;BME280;15787;49.662;10.162;2023-04-26T04:11:36;99218.22;;;1.34;94.38
28588;BME280;15787;49.662;10.162;2023-04-26T04:14:10;99221.59;;;1.47;94.36
28588;BME280;15787;49.662;10.162;2023-04-26T04:16:43;99233.56;;;1.58;93.99
28588;BME280;15787;49.662;10.162;2023-04-26T04:19:16;99227.09;;;1.47;93.66
28588;BME280;15787;49.662;10.162;2023-04-26T04:21:50;99223.34;;;1.36;94.07
28588;BME280;15787;49.662;10.162;2023-04-26T04:24:23;99223.91;;;1.45;94.14
28588;BME280;15787;49.662;10.162;2023-04-26T04:26:56;99220.97;;;1.57;93.67
28588;BME280;15787;49.662;10.162;2023-04-26T04:29:33;99225.91;;;1.48;92.46
28588;BME280;15787;49.662;10.162;2023-04-26T04:32:06;99230.16;;;1.42;93.10
28588;BME280;15787;49.662;10.162;2023-04-26T04:34:40;99228.59;;;1.02;93.74
28588;BME280;15787;49.662;10.162;2023-04-26T04:37:13;99238.91;;;0.86;94.99
28588;BME280;15787;49.662;10.162;2023-04-26T04:39:46;99237.28;;;1.23;95.80
28588;BME280;15787;49.662;10.162;2023-04-26T04:42:20;99237.28;;;1.46;94.84
28588;BME280;15787;49.662;10.162;2023-04-26T04:44:55;99234.06;;;1.63;93.23
28588;BME280;15787;49.662;10.162;2023-04-26T04:47:31;99242.91;;;1.53;92.34
28588;BME280;15787;49.662;10.162;2023-04-26T04:50:06;99233.16;;;0.95;94.32
28588;BME280;15787;49.662;10.162;2023-04-26T04:52:39;99236.47;;;1.23;95.93
28588;BME280;15787;49.662;10.162;2023-04-26T04:55:13;99244.25;;;1.40;95.34
28588;BME280;15787;49.662;10.162;2023-04-26T04:57:47;99244.25;;;1.63;94.89
28588;BME280;15787;49.662;10.162;2023-04-26T05:00:22;99245.13;;;1.44;94.98
28588;BME280;15787;49.662;10.162;2023-04-26T05:03:05;99244.72;;;1.65;94.46
28588;BME280;15787;49.662;10.162;2023-04-26T05:05:41;99246.88;;;1.78;93.80
28588;BME280;15787;49.662;10.162;2023-04-26T05:08:14;99248.88;;;1.78;93.14
28588;BME280;15787;49.662;10.162;2023-04-26T05:10:47;99249.41;;;1.87;92.81
28588;BME280;15787;49.662;10.162;2023-04-26T05:13:20;99242.75;;;1.88;92.75
28588;BME280;15787;49.662;10.162;2023-04-26T05:15:54;99248.38;;;1.95;92.45
28588;BME280;15787;49.662;10.162;2023-04-26T05:18:28;99250.66;;;2.16;92.64
28588;BME280;15787;49.662;10.162;2023-04-26T05:21:01;99249.94;;;1.73;93.33
28588;BME280;15787;49.662;10.162;2023-04-26T05:23:34;99251.75;;;1.62;94.37
28588;BME280;15787;49.662;10.162;2023-04-26T05:26:09;99254.72;;;1.76;95.66
28588;BME280;15787;49.662;10.162;2023-04-26T05:28:48;99264.91;;;1.72;96.66
28588;BME280;15787;49.662;10.162;2023-04-26T05:31:43;99266.31;;;2.12;95.90
28588;BME280;15787;49.662;10.162;2023-04-26T05:34:25;99270.44;;;1.99;96.03
28588;BME280;15787;49.662;10.162;2023-04-26T05:37:00;99275.25;;;2.28;95.55
28588;BME280;15787;49.662;10.162;2023-04-26T05:39:34;99278.66;;;2.44;94.77
28588;BME280;15787;49.662;10.162;2023-04-26T05:42:07;99279.72;;;2.39;94.43
28588;BME280;15787;49.662;10.162;2023-04-26T05:44:40;99285.19;;;2.10;95.89
28588;BME280;15787;49.662;10.162;2023-04-26T05:47:14;99283.13;;;2.29;96.78
28588;BME280;15787;49.662;10.162;2023-04-26T05:49:47;99285.56;;;2.61;96.79
28588;BME280;15787;49.662;10.162;2023-04-26T05:52:20;99297.41;;;2.65;97.00
28588;BME280;15787;49.662;10.162;2023-04-26T05:54:53;99287.81;;;2.51;97.32
28588;BME280;15787;49.662;10.162;2023-04-26T05:57:27;99295.38;;;2.58;97.72
28588;BME280;15787;49.662;10.162;2023-04-26T06:00:00;99283.53;;;2.84;98.07
28588;BME280;15787;49.662;10.162;2023-04-26T06:02:34;99288.78;;;2.96;98.84
28588;BME280;15787;49.662;10.162;2023-04-26T06:05:08;99300.09;;;3.17;98.88
28588;BME280;15787;49.662;10.162;2023-04-26T06:07:41;99285.13;;;3.18;99.95
28588;BME280;15787;49.662;10.162;2023-04-26T06:10:15;99289.44;;;3.15;100.00
28588;BME280;15787;49.662;10.162;2023-04-26T06:12:55;99284.91;;;3.30;100.00
28588;BME280;15787;49.662;10.162;2023-04-26T06:15:31;99283.53;;;3.50;100.00
28588;BME280;15787;49.662;10.162;2023-04-26T06:18:06;99297.13;;;3.66;100.00
28588;BME280;15787;49.662;10.162;2023-04-26T06:20:39;99298.50;;;3.90;100.00
28588;BME280;15787;49.662;10.162;2023-04-26T06:23:13;99298.72;;;4.11;100.00
28588;BME280;15787;49.662;10.162;2023-04-26T06:25:46;99291.50;;;4.46;99.55
28588;BME280;15787;49.662;10.162;2023-04-26T06:28:19;99290.84;;;4.67;98.70
28588;BME280;15787;49.662;10.162;2023-04-26T06:30:52;99295.00;;;5.05;94.90
28588;BME280;15787;49.662;10.162;2023-04-26T06:33:27;99295.47;;;5.21;94.92
28588;BME280;15787;49.662;10.162;2023-04-26T06:36:00;99290.00;;;5.42;93.69
28588;BME280;15787;49.662;10.162;2023-04-26T06:38:33;99299.88;;;5.36;92.11
28588;BME280;15787;49.662;10.162;2023-04-26T06:41:06;99296.75;;;5.52;90.92
28588;BME280;15787;49.662;10.162;2023-04-26T06:43:40;99292.91;;;5.88;91.08
28588;BME280;15787;49.662;10.162;2023-04-26T06:46:24;99302.03;;;6.34;88.03
28588;BME280;15787;49.662;10.162;2023-04-26T06:49:00;99294.50;;;6.38;87.65
28588;BME280;15787;49.662;10.162;2023-04-26T06:51:33;99306.38;;;6.46;87.07
28588;BME280;15787;49.662;10.162;2023-04-26T06:54:05;99297.25;;;6.70;86.44
28588;BME280;15787;49.662;10.162;2023-04-26T06:56:38;99305.19;;;6.65;86.50
28588;BME280;15787;49.662;10.162;2023-04-26T06:59:11;99303.91;;;7.12;83.24
28588;BME280;15787;49.662;10.162;2023-04-26T07:01:44;99295.91;;;7.24;79.56
28588;BME280;15787;49.662;10.162;2023-04-26T07:04:18;99299.47;;;7.28;79.19
28588;BME280;15787;49.662;10.162;2023-04-26T07:06:52;99296.41;;;7.81;75.81
28588;BME280;15787;49.662;10.162;2023-04-26T07:09:24;99298.16;;;7.54;74.97
28588;BME280;15787;49.662;10.162;2023-04-26T07:11:57;99303.25;;;7.66;74.37
28588;BME280;15787;49.662;10.162;2023-04-26T07:14:30;99308.56;;;8.05;75.80
28588;BME280;15787;49.662;10.162;2023-04-26T07:17:03;99297.78;;;8.14;74.12
28588;BME280;15787;49.662;10.162;2023-04-26T07:19:37;99296.81;;;7.80;74.79
28588;BME280;15787;49.662;10.162;2023-04-26T07:22:10;99288.81;;;7.89;75.94
28588;BME280;15787;49.662;10.162;2023-04-26T07:24:43;99298.00;;;7.79;73.58
28588;BME280;15787;49.662;10.162;2023-04-26T07:27:16;99291.75;;;8.22;74.52
28588;BME280;15787;49.662;10.162;2023-04-26T07:29:52;99300.91;;;8.19;73.67
28588;BME280;15787;49.662;10.162;2023-04-26T07:32:25;99293.41;;;8.64;71.70
28588;BME280;15787;49.662;10.162;2023-04-26T07:35:00;99298.09;;;8.74;71.97
28588;BME280;15787;49.662;10.162;2023-04-26T07:37:33;99302.72;;;8.88;71.00
28588;BME280;15787;49.662;10.162;2023-04-26T07:40:07;99295.25;;;8.78;71.76
28588;BME280;15787;49.662;10.162;2023-04-26T07:42:41;99311.09;;;9.22;71.41
28588;BME280;15787;49.662;10.162;2023-04-26T07:45:14;99300.16;;;9.04;70.36
28588;BME280;15787;49.662;10.162;2023-04-26T07:47:47;99313.72;;;9.02;67.28
28588;BME280;15787;49.662;10.162;2023-04-26T07:50:23;99307.94;;;9.20;66.80
28588;BME280;15787;49.662;10.162;2023-04-26T07:52:56;99309.75;;;9.33;67.33
28588;BME280;15787;49.662;10.162;2023-04-26T07:55:29;99307.03;;;9.30;67.18
28588;BME280;15787;49.662;10.162;2023-04-26T07:58:01;99296.50;;;10.01;68.92
28588;BME280;15787;49.662;10.162;2023-04-26T08:00:35;99300.59;;;9.93;67.21
28588;BME280;15787;49.662;10.162;2023-04-26T08:03:09;99304.75;;;9.82;65.72
28588;BME280;15787;49.662;10.162;2023-04-26T08:05:44;99305.69;;;10.29;64.65
28588;BME280;15787;49.662;10.162;2023-04-26T08:08:18;99310.03;;;10.03;62.41
28588;BME280;15787;49.662;10.162;2023-04-26T08:10:51;99306.34;;;9.83;62.72
28588;BME280;15787;49.662;10.162;2023-04-26T08:13:24;99309.66;;;10.28;63.30
28588;BME280;15787;49.662;10.162;2023-04-26T08:16:00;99309.56;;;10.08;62.71
28588;BME280;15787;49.662;10.162;2023-04-26T08:18:33;99313.78;;;10.20;63.41
28588;BME280;15787;49.662;10.162;2023-04-26T08:21:07;99303.88;;;10.42;61.88
28588;BME280;15787;49.662;10.162;2023-04-26T08:23:40;99297.41;;;10.68;63.66
28588;BME280;15787;49.662;10.162;2023-04-26T08:26:13;99301.44;;;10.90;63.08
28588;BME280;15787;49.662;10.162;2023-04-26T08:28:46;99301.78;;;10.92;63.09
28588;BME280;15787;49.662;10.162;2023-04-26T08:31:19;99295.72;;;10.74;60.09
28588;BME280;15787;49.662;10.162;2023-04-26T08:33:53;99299.66;;;11.19;59.96
28588;BME280;15787;49.662;10.162;2023-04-26T08:36:28;99294.69;;;10.88;59.45
28588;BME280;15787;49.662;10.162;2023-04-26T08:39:05;99300.50;;;11.16;57.51
28588;BME280;15787;49.662;10.162;2023-04-26T08:41:42;99295.28;;;11.58;58.65
28588;BME280;15787;49.662;10.162;2023-04-26T08:44:17;99297.78;;;11.91;57.74
28588;BME280;15787;49.662;10.162;2023-04-26T08:47:00;99293.56;;;11.24;54.87
28588;BME280;15787;49.662;10.162;2023-04-26T08:49:39;99295.50;;;12.02;56.47
28588;BME280;15787;49.662;10.162;2023-04-26T08:52:14;99302.38;;;11.62;58.14
28588;BME280;15787;49.662;10.162;2023-04-26T08:54:49;99301.47;;;11.69;56.56
28588;BME280;15787;49.662;10.162;2023-04-26T08:57:23;99298.06;;;10.99;56.82
28588;BME280;15787;49.662;10.162;2023-04-26T08:59:56;99301.13;;;10.61;55.13
28588;BME280;15787;49.662;10.162;2023-04-26T09:02:30;99296.38;;;11.05;52.99
28588;BME280;15787;49.662;10.162;2023-04-26T09:05:03;99292.78;;;11.24;54.86
28588;BME280;15787;49.662;10.162;2023-04-26T09:07:44;99299.94;;;10.62;55.92
28588;BME280;15787;49.662;10.162;2023-04-26T09:10:18;99291.00;;;11.73;54.41
28588;BME280;15787;49.662;10.162;2023-04-26T09:12:53;99284.69;;;11.69;54.94
28588;BME280;15787;49.662;10.162;2023-04-26T09:15:27;99289.41;;;12.24;55.19
28588;BME280;15787;49.662;10.162;2023-04-26T09:18:15;99295.97;;;12.33;53.85
28588;BME280;15787;49.662;10.162;2023-04-26T09:21:01;99293.53;;;12.19;52.55
28588;BME280;15787;49.662;10.162;2023-04-26T09:23:55;99289.19;;;12.95;50.07
28588;BME280;15787;49.662;10.162;2023-04-26T09:26:29;99287.84;;;12.23;52.47
28588;BME280;15787;49.662;10.162;2023-04-26T09:29:12;99294.84;;;11.39;54.06
28588;BME280;15787;49.662;10.162;2023-04-26T09:31:47;99298.22;;;11.11;54.23
28588;BME280;15787;49.662;10.162;2023-04-26T09:34:20;99284.53;;;11.36;53.10
28588;BME280;15787;49.662;10.162;2023-04-26T09:36:55;99281.63;;;11.43;52.54
28588;BME280;15787;49.662;10.162;2023-04-26T09:39:31;99281.59;;;11.24;52.17
28588;BME280;15787;49.662;10.162;2023-04-26T09:42:04;99282.72;;;10.87;52.39
28588;BME280;15787;49.662;10.162;2023-04-26T09:44:37;99280.97;;;11.36;54.10
28588;BME280;15787;49.662;10.162;2023-04-26T09:47:10;99282.25;;;11.71;55.01
28588;BME280;15787;49.662;10.162;2023-04-26T09:49:45;99278.91;;;12.12;53.43
28588;BME280;15787;49.662;10.162;2023-04-26T09:52:19;99285.16;;;11.83;52.43
28588;BME280;15787;49.662;10.162;2023-04-26T09:54:54;99270.44;;;12.31;52.40
28588;BME280;15787;49.662;10.162;2023-04-26T09:57:27;99271.03;;;13.00;50.13
28588;BME280;15787;49.662;10.162;2023-04-26T10:00:05;99268.69;;;12.21;50.55
28588;BME280;15787;49.662;10.162;2023-04-26T10:02:41;99274.09;;;12.60;48.41
28588;BME280;15787;49.662;10.162;2023-04-26T10:05:15;99269.66;;;12.92;46.67
28588;BME280;15787;49.662;10.162;2023-04-26T10:07:49;99280.44;;;11.61;48.79
28588;BME280;15787;49.662;10.162;2023-04-26T10:10:23;99275.81;;;11.90;49.75
28588;BME280;15787;49.662;10.162;2023-04-26T10:12:57;99275.94;;;11.27;49.69
28588;BME280;15787;49.662;10.162;2023-04-26T10:15:29;99289.63;;;11.81;50.88
28588;BME280;15787;49.662;10.162;2023-04-26T10:18:03;99279.75;;;11.92;50.51
28588;BME280;15787;49.662;10.162;2023-04-26T10:20:39;99269.25;;;11.80;50.68
28588;BME280;15787;49.662;10.162;2023-04-26T10:23:20;99279.16;;;12.01;50.84
28588;BME280;15787;49.662;10.162;2023-04-26T10:25:57;99271.03;;;12.07;52.48
28588;BME280;15787;49.662;10.162;2023-04-26T10:28:53;99280.16;;;11.75;51.95
28588;BME280;15787;49.662;10.162;2023-04-26T10:32:04;99267.84;;;11.13;50.51
28588;BME280;15787;49.662;10.162;2023-04-26T10:34:37;99265.84;;;11.33;50.20
28588;BME280;15787;49.662;10.162;2023-04-26T10:37:11;99277.94;;;11.27;50.60
28588;BME280;15787;49.662;10.162;2023-04-26T10:39:45;99280.59;;;11.14;51.20
28588;BME280;15787;49.662;10.162;2023-04-26T10:42:22;99272.28;;;11.30;51.42
28588;BME280;15787;49.662;10.162;2023-04-26T10:44:57;99264.34;;;11.65;50.54
28588;BME280;15787;49.662;10.162;2023-04-26T10:47:31;99265.63;;;11.05;50.13
28588;BME280;15787;49.662;10.162;2023-04-26T10:50:06;99269.75;;;11.56;50.32
28588;BME280;15787;49.662;10.162;2023-04-26T10:53:04;99268.69;;;12.05;51.19
28588;BME280;15787;49.662;10.162;2023-04-26T10:55:37;99253.38;;;12.10;49.66
28588;BME280;15787;49.662;10.162;2023-04-26T10:58:32;99242.84;;;12.46;48.03
28588;BME280;15787;49.662;10.162;2023-04-26T11:01:05;99247.91;;;12.67;49.22
28588;BME280;15787;49.662;10.162;2023-04-26T11:03:39;99241.63;;;13.08;46.98
28588;BME280;15787;49.662;10.162;2023-04-26T11:06:14;99242.94;;;12.58;47.78
28588;BME280;15787;49.662;10.162;2023-04-26T11:08:48;99237.47;;;12.84;46.17
28588;BME280;15787;49.662;10.162;2023-04-26T11:11:24;99235.31;;;12.59;47.91
28588;BME280;15787;49.662;10.162;2023-04-26T11:14:02;99233.38;;;13.01;48.90
28588;BME280;15787;49.662;10.162;2023-04-26T11:16:35;99227.16;;;13.88;45.74
28588;BME280;15787;49.662;10.162;2023-04-26T11:19:09;99226.75;;;12.95;46.65
28588;BME280;15787;49.662;10.162;2023-04-26T11:21:41;99231.09;;;12.67;46.55
28588;BME280;15787;49.662;10.162;2023-04-26T11:24:15;99225.09;;;13.39;47.88
28588;BME280;15787;49.662;10.162;2023-04-26T11:26:50;99226.69;;;13.40;47.21
28588;BME280;15787;49.662;10.162;2023-04-26T11:29:25;99221.78;;;13.15;47.27
28588;BME280;15787;49.662;10.162;2023-04-26T11:31:58;99219.34;;;12.72;47.55
28588;BME280;15787;49.662;10.162;2023-04-26T11:34:31;99214.50;;;12.60;47.13
28588;BME280;15787;49.662;10.162;2023-04-26T11:37:05;99211.81;;;12.40;47.01
28588;BME280;15787;49.662;10.162;2023-04-26T11:39:39;99213.22;;;13.06;48.51
28588;BME280;15787;49.662;10.162;2023-04-26T11:42:12;99205.56;;;12.94;47.32
28588;BME280;15787;49.662;10.162;2023-04-26T11:44:49;99201.25;;;13.59;47.52
28588;BME280;15787;49.662;10.162;2023-04-26T11:47:23;99204.69;;;13.38;47.07
28588;BME280;15787;49.662;10.162;2023-04-26T11:50:01;99205.03;;;13.53;48.06
28588;BME280;15787;49.662;10.162;2023-04-26T11:52:35;99201.44;;;13.40;47.33
28588;BME280;15787;49.662;10.162;2023-04-26T11:55:09;99202.81;;;13.85;46.21
28588;BME280;15787;49.662;10.162;2023-04-26T11:57:42;99193.72;;;13.69;44.42
28588;BME280;15787;49.662;10.162;2023-04-26T12:00:17;99196.50;;;14.07;44.79
28588;BME280;15787;49.662;10.162;2023-04-26T12:02:50;99199.94;;;13.22;46.77
28588;BME280;15787;49.662;10.162;2023-04-26T12:05:25;99202.59;;;12.85;47.11
28588;BME280;15787;49.662;10.162;2023-04-26T12:07:59;99199.22;;;12.32;46.04
28588;BME280;15787;49.662;10.162;2023-04-26T12:10:34;99187.16;;;12.93;46.56
28588;BME280;15787;49.662;10.162;2023-04-26T12:13:12;99191.34;;;13.01;47.30
28588;BME280;15787;49.662;10.162;2023-04-26T12:15:46;99194.38;;;13.60;48.50
28588;BME280;15787;49.662;10.162;2023-04-26T12:18:28;99198.75;;;14.12;46.77
28588;BME280;15787;49.662;10.162;2023-04-26T12:21:02;99193.81;;;13.65;48.41
28588;BME280;15787;49.662;10.162;2023-04-26T12:23:36;99194.31;;;13.22;47.80
28588;BME280;15787;49.662;10.162;2023-04-26T12:26:10;99197.94;;;13.36;48.10
28588;BME280;15787;49.662;10.162;2023-04-26T12:28:43;99184.72;;;13.86;47.24
28588;BME280;15787;49.662;10.162;2023-04-26T12:31:17;99187.53;;;13.86;47.20
28588;BME280;15787;49.662;10.162;2023-04-26T12:33:50;99179.06;;;14.24;47.28
28588;BME280;15787;49.662;10.162;2023-04-26T12:36:23;99177.09;;;15.24;45.32
28588;BME280;15787;49.662;10.162;2023-04-26T12:38:56;99183.63;;;15.43;44.46
28588;BME280;15787;49.662;10.162;2023-04-26T12:41:31;99177.22;;;14.77;42.73
28588;BME280;15787;49.662;10.162;2023-04-26T12:44:04;99175.78;;;14.73;44.05
28588;BME280;15787;49.662;10.162;2023-04-26T12:46:39;99182.25;;;14.01;44.39
28588;BME280;15787;49.662;10.162;2023-04-26T12:49:12;99171.72;;;14.52;44.41
28588;BME280;15787;49.662;10.162;2023-04-26T12:51:45;99163.13;;;14.68;44.07
28588;BME280;15787;49.662;10.162;2023-04-26T12:54:17;99166.66;;;15.25;43.80
28588;BME280;15787;49.662;10.162;2023-04-26T12:56:50;99161.97;;;15.83;42.65
28588;BME280;15787;49.662;10.162;2023-04-26T12:59:23;99166.19;;;14.61;42.61
28588;BME280;15787;49.662;10.162;2023-04-26T13:01:57;99176.09;;;14.53;42.78
28588;BME280;15787;49.662;10.162;2023-04-26T13:04:30;99171.63;;;15.82;42.70
28588;BME280;15787;49.662;10.162;2023-04-26T13:07:04;99177.00;;;14.84;43.12
28588;BME280;15787;49.662;10.162;2023-04-26T13:09:37;99178.25;;;15.05;43.70
28588;BME280;15787;49.662;10.162;2023-04-26T13:12:10;99172.06;;;15.19;43.97
28588;BME280;15787;49.662;10.162;2023-04-26T13:14:42;99168.94;;;14.27;43.02
28588;BME280;15787;49.662;10.162;2023-04-26T13:17:19;99166.22;;;14.48;41.81
28588;BME280;15787;49.662;10.162;2023-04-26T13:19:52;99177.94;;;14.22;42.86
28588;BME280;15787;49.662;10.162;2023-04-26T13:22:25;99167.13;;;15.85;45.36
28588;BME280;15787;49.662;10.162;2023-04-26T13:24:58;99162.63;;;16.05;43.75
28588;BME280;15787;49.662;10.162;2023-04-26T13:27:31;99167.84;;;15.14;42.47
28588;BME280;15787;49.662;10.162;2023-04-26T13:30:05;99170.38;;;14.57;42.70
28588;BME280;15787;49.662;10.162;2023-04-26T13:32:39;99165.94;;;14.34;43.58